Aérodrome :
LOGIN :

S'inscrire | Disclaimer

   EN    FR    IT 

 










Légende :    VFR   VFR Marginal   IFR   IFR Intensif   IFR Très Intensif
Visi : 
Plafond : 
>= 8 km
>= 3000ft
5 à 8 km
1000 à 3000 ft
1500m à 5 km
500 à 1000 ft
800 à 1500m
200 à 500 ft
< 800m
< 200 ft
Symboles :   Orages  Brouillard  Fortes neiges  Fortes précipitations  Vent > 20 kt
SIGMETs :   Divers  Orages  Givrage  Turbulence  Onde Orograph.  Cendres Volcan.







- Altitude de l'aérodrome : 171 ft
- Code IATA : EGC
- Voir les cartes d'approche


LFBE - Bergerac

DERNIER METAR :
  • 121530Z AUTO 15004KT 120V180 9000 OVC006 08/07 Q1017 BECMG BKN012

METARs EXPIRÉS :
  • 121500Z AUTO 14003KT 9999 OVC006 08/07 Q1017 BECMG BKN012
  • 121430Z AUTO 14003KT 100V170 9999 OVC006 08/07 Q1017 BECMG BKN012
  • 121400Z AUTO 14005KT 8000 OVC005 08/07 Q1017 TEMPO 4000 BR BECMG BKN012
  • 121330Z AUTO 14005KT 120V180 9000 OVC006 08/07 Q1018 TEMPO 4000 BR BECMG BKN012
  • 121300Z AUTO 08004KT 040V120 8000 OVC006 07/07 Q1018 TEMPO 4000 BR

TAF AMD TAF LFBE
Valide du 12 à 15h jusqu'au 13 à 12h UTC


121522Z 1215/1312 10007KT 9999 OVC006
TEMPO 1218/1304 2000 BR OVC002
PROB40
TEMPO 1308/1310 CAVOK
BECMG 1310/1312 4500 -RA BKN007 OVC030
Pas de NOTAMs connus pour ce terrain.



MET'MAP, la Météo Aéronautique d'un coup d'oeil ! - Copyright ORBIFLY Décembre 2007 - Disclaimer

ORBIFLY MET'MAP TEAM :

Programmation & Développement : Alexandra Zaïnal
Conception & Développement : Baudouin d'Aumeries
Co-Programmation & Développement : Marc-Olivier Méhu
Soutien technique & logistique : Manuel Goepfert

Contact : metmap@orbifly.com




SOURCES & CREDITS :

   NOAA